Time;durP1;ratioP1;P1;durP2;ratioP2;P2;SDS_P1;SDS_P2;PMS_P1;PMS_P2;Temp;Humidity;BMP_temperature;BMP_pressure;BME280_temperature;BME280_humidity;BME280_pressure;Samples;Min_cycle;Max_cycle;Signal;HPM_P1;HPM_P2
2023/04/07 00:00:05;;;;;;;;;;;;;;;;;;2072589;28;19993;-89
2023/04/07 00:01:05;;;;;;;;;;;;;;;;;;2071493;28;19914;-90
2023/04/07 00:02:05;;;;;;;;;;;;;;;;;;2072257;28;19924;-88
2023/04/07 00:03:06;;;;;;;;;;;;;;;;;;2073826;28;20068;-89
2023/04/07 00:04:06;;;;;;;;;;;;;;;;;;2075349;28;19921;-89
2023/04/07 00:05:07;;;;;;;;;;;;;;;;;;2075508;28;19981;-89
2023/04/07 00:06:07;;;;;;;;;;;;;;;;;;2077660;28;19945;-89
2023/04/07 00:07:07;;;;;;;;;;;;;;;;;;2073592;28;19914;-89
2023/04/07 00:08:08;;;;;;;;;;;;;;;;;;2074279;28;20016;-90
2023/04/07 00:09:10;;;;;;;;;;;;;;;;;;2090744;28;20007;-89
2023/04/07 00:10:10;;;;;;;;;;;;;;;;;;2081975;28;19928;-89
2023/04/07 00:11:10;;;;;;;;;;;;;;;;;;2070572;28;19914;-89
2023/04/07 00:12:10;;;;;;;;;;;;;;;;;;2077033;28;20068;-89
2023/04/07 00:13:11;;;;;;;;;;;;;;;;;;2075228;28;19914;-90
2023/04/07 00:14:11;;;;;;;;;;;;;;;;;;2072017;28;19913;-91
2023/04/07 00:15:11;;;;;;;;;;;;;;;;;;2071688;28;20515;-90
2023/04/07 00:16:12;;;;;;;;;;;;;;;;;;2063893;28;19973;-89
2023/04/07 00:17:12;;;;;;;;;;;;;;;;;;2072406;28;20774;-89
2023/04/07 00:18:12;;;;;;;;;;;;;;;;;;2072187;28;19979;-88
2023/04/07 00:19:12;;;;;;;;;;;;;;;;;;2071728;28;19922;-88
2023/04/07 00:20:13;;;;;;;;;;;;;;;;;;2071645;28;20317;-87
2023/04/07 00:21:13;;;;;;;;;;;;;;;;;;2072382;28;19981;-90
2023/04/07 00:22:13;;;;;;;;;;;;;;;;;;2071522;28;19922;-90
2023/04/07 00:23:14;;;;;;;;;;;;;;;;;;2071638;28;19917;-88
2023/04/07 00:24:14;;;;;;;;;;;;;;;;;;2071998;28;19913;-88
2023/04/07 00:25:16;;;;;;;;;;;;;;;;;;2071421;28;20375;-87
2023/04/07 00:26:16;;;;;;;;;;;;;;;;;;2076383;28;19964;-89
2023/04/07 00:27:16;;;;;;;;;;;;;;;;;;2071676;28;20491;-90
2023/04/07 00:28:17;;;;;;;;;;;;;;;;;;2063354;28;19993;-90
2023/04/07 00:29:17;;;;;;;;;;;;;;;;;;2072902;28;20356;-88
2023/04/07 00:30:17;;;;;;;;;;;;;;;;;;2072371;28;19993;-88
2023/04/07 00:31:17;;;;;;;;;;;;;;;;;;2071354;28;19948;-88
2023/04/07 00:32:18;;;;;;;;;;;;;;;;;;2071301;28;20304;-89
2023/04/07 00:33:18;;;;;;;;;;;;;;;;;;2063509;28;20000;-89
2023/04/07 00:34:18;;;;;;;;;;;;;;;;;;2071627;28;20384;-87
2023/04/07 00:35:19;;;;;;;;;;;;;;;;;;2071260;28;19914;-90
2023/04/07 00:36:19;;;;;;;;;;;;;;;;;;2063199;28;20262;-89
2023/04/07 00:37:19;;;;;;;;;;;;;;;;;;2062826;28;19991;-90
2023/04/07 00:38:20;;;;;;;;;;;;;;;;;;2063525;28;20271;-90
2023/04/07 00:39:20;;;;;;;;;;;;;;;;;;2071290;28;19920;-89
2023/04/07 00:40:20;;;;;;;;;;;;;;;;;;2071500;28;19913;-89
2023/04/07 00:41:21;;;;;;;;;;;;;;;;;;2063571;28;19997;-89
2023/04/07 00:42:21;;;;;;;;;;;;;;;;;;2072193;28;20061;-89
2023/04/07 00:43:21;;;;;;;;;;;;;;;;;;2072097;28;19948;-91
2023/04/07 00:44:21;;;;;;;;;;;;;;;;;;2072373;28;19918;-89
2023/04/07 00:45:22;;;;;;;;;;;;;;;;;;2074544;28;19918;-87
2023/04/07 00:46:23;;;;;;;;;;;;;;;;;;2073724;28;19920;-90
2023/04/07 00:47:23;;;;;;;;;;;;;;;;;;2071204;28;19920;-87
2023/04/07 00:48:23;;;;;;;;;;;;;;;;;;2063355;28;19958;-88
2023/04/07 00:49:24;;;;;;;;;;;;;;;;;;2072006;28;20368;-90
2023/04/07 00:50:24;;;;;;;;;;;;;;;;;;2071242;28;19968;-89
2023/04/07 00:51:25;;;;;;;;;;;;;;;;;;2070943;28;20340;-89
2023/04/07 00:52:28;;;;;;;;;;;;;;;;;;2071826;28;19976;-87
2023/04/07 00:53:29;;;;;;;;;;;;;;;;;;2071494;28;19925;-89
2023/04/07 00:54:29;;;;;;;;;;;;;;;;;;2071186;28;20197;-89
2023/04/07 00:55:30;;;;;;;;;;;;;;;;;;2071273;28;19921;-90
2023/04/07 00:56:30;;;;;;;;;;;;;;;;;;2071457;28;19917;-89
2023/04/07 00:57:31;;;;;;;;;;;;;;;;;;2070915;28;19914;-89
2023/04/07 00:58:31;;;;;;;;;;;;;;;;;;2070912;28;19913;-89
2023/04/07 00:59:31;;;;;;;;;;;;;;;;;;2071318;28;19913;-90
2023/04/07 01:00:34;;;;;;;;;;;;;;;;;;2071275;28;19909;-89
2023/04/07 01:01:59;;;;;;;;;;;;;;;;;;2079913;28;19901;-89
2023/04/07 01:03:05;;;;;;;;;;;;;;;;;;2073630;28;20388;-90
2023/04/07 01:04:09;;;;;;;;;;;;;;;;;;2074152;28;19971;-93
2023/04/07 01:05:17;;;;;;;;;;;;;;;;;;2074023;28;19920;-94
2023/04/07 01:06:19;;;;;;;;;;;;;;;;;;2072295;28;19913;-94
2023/04/07 01:07:35;;;;;;;;;;;;;;;;;;2073169;28;19953;-93
2023/04/07 01:08:35;;;;;;;;;;;;;;;;;;2071249;28;20025;-95
2023/04/07 01:09:53;;;;;;;;;;;;;;;;;;2065398;28;19924;-94
2023/04/07 01:11:05;;;;;;;;;;;;;;;;;;2081996;28;20313;-92
2023/04/07 01:12:13;;;;;;;;;;;;;;;;;;2075654;28;19933;-95
2023/04/07 01:13:29;;;;;;;;;;;;;;;;;;2084290;28;19972;-94
2023/04/07 01:14:40;;;;;;;;;;;;;;;;;;2080898;28;19920;-95
2023/04/07 01:15:41;;;;;;;;;;;;;;;;;;2068151;28;20012;-94
2023/04/07 01:16:47;;;;;;;;;;;;;;;;;;2059154;28;20378;-94
2023/04/07 01:17:48;;;;;;;;;;;;;;;;;;2066862;28;19926;-94
2023/04/07 01:18:51;;;;;;;;;;;;;;;;;;2073083;28;19920;-92
2023/04/07 01:20:00;;;;;;;;;;;;;;;;;;2073477;28;19913;-93
2023/04/07 01:21:06;;;;;;;;;;;;;;;;;;2072083;28;19917;-94
2023/04/07 01:22:09;;;;;;;;;;;;;;;;;;2075035;28;20276;-94
2023/04/07 01:23:16;;;;;;;;;;;;;;;;;;2072868;28;19917;-93
2023/04/07 01:24:19;;;;;;;;;;;;;;;;;;2064998;28;19922;-93
2023/04/07 01:25:25;;;;;;;;;;;;;;;;;;2065778;28;19920;-95
2023/04/07 01:26:28;;;;;;;;;;;;;;;;;;2072083;28;19971;-93
2023/04/07 01:27:28;;;;;;;;;;;;;;;;;;2073603;28;19914;-95
2023/04/07 01:28:48;;;;;;;;;;;;;;;;;;2073037;28;19914;-95
2023/04/07 01:29:51;;;;;;;;;;;;;;;;;;2066081;28;19961;-94
2023/04/07 01:30:53;;;;;;;;;;;;;;;;;;2073299;28;19920;-95
2023/04/07 01:31:54;;;;;;;;;;;;;;;;;;2066619;28;19914;-94
2023/04/07 01:32:56;;;;;;;;;;;;;;;;;;2083207;28;19949;-95
2023/04/07 01:33:58;;;;;;;;;;;;;;;;;;2083050;28;19940;-93
2023/04/07 01:34:59;;;;;;;;;;;;;;;;;;2082996;28;19921;-94
2023/04/07 01:36:01;;;;;;;;;;;;;;;;;;2075268;28;19913;-95
2023/04/07 01:37:01;;;;;;;;;;;;;;;;;;2071582;28;19914;-93
2023/04/07 01:38:02;;;;;;;;;;;;;;;;;;2065514;28;19949;-94
2023/04/07 01:39:03;;;;;;;;;;;;;;;;;;2065545;28;19981;-95
2023/04/07 01:40:05;;;;;;;;;;;;;;;;;;2074700;28;19917;-93
2023/04/07 01:41:07;;;;;;;;;;;;;;;;;;2075873;28;19925;-92
2023/04/07 01:42:08;;;;;;;;;;;;;;;;;;2083488;28;19926;-94
2023/04/07 01:43:08;;;;;;;;;;;;;;;;;;2083139;28;19920;-93
2023/04/07 01:44:09;;;;;;;;;;;;;;;;;;2075713;28;20009;-94
2023/04/07 01:45:10;;;;;;;;;;;;;;;;;;2082057;28;19920;-95
2023/04/07 01:46:10;;;;;;;;;;;;;;;;;;2074377;28;19917;-95
2023/04/07 01:47:13;;;;;;;;;;;;;;;;;;2067784;28;20365;-95
2023/04/07 01:48:14;;;;;;;;;;;;;;;;;;2067295;28;19924;-95
2023/04/07 01:49:14;;;;;;;;;;;;;;;;;;2075846;28;19958;-94
2023/04/07 01:50:17;;;;;;;;;;;;;;;;;;2074980;28;20157;-95
2023/04/07 01:51:20;;;;;;;;;;;;;;;;;;2075316;28;20034;-95
2023/04/07 01:52:25;;;;;;;;;;;;;;;;;;2076021;28;19936;-94
2023/04/07 01:53:25;;;;;;;;;;;;;;;;;;2071743;28;19921;-90
2023/04/07 01:54:27;;;;;;;;;;;;;;;;;;2079016;28;19913;-90
2023/04/07 01:55:27;;;;;;;;;;;;;;;;;;2062959;28;20021;-90
2023/04/07 01:56:27;;;;;;;;;;;;;;;;;;2062769;28;20138;-89
2023/04/07 01:57:27;;;;;;;;;;;;;;;;;;2070621;28;19914;-89
2023/04/07 01:58:28;;;;;;;;;;;;;;;;;;2062933;28;19993;-88
2023/04/07 01:59:29;;;;;;;;;;;;;;;;;;1715558;28;10274918;-88
2023/04/07 02:00:30;;;;;;;;;;;;;;;;;;2070863;28;19913;-90
2023/04/07 02:01:30;;;;;;;;;;;;;;;;;;2071582;28;20379;-89
2023/04/07 02:02:35;;;;;;;;;;;;;;;;;;2073013;28;19968;-87
2023/04/07 02:03:42;;;;;;;;;;;;;;;;;;2072556;28;19920;-89
2023/04/07 02:05:04;;;;;;;;;;;;;;;;;;2072584;28;19918;-89
2023/04/07 02:06:06;;;;;;;;;;;;;;;;;;2072247;28;20005;-88
2023/04/07 02:07:14;;;;;;;;;;;;;;;;;;2072283;28;19979;-88
2023/04/07 02:08:19;;;;;;;;;;;;;;;;;;2073213;28;19913;-88
2023/04/07 02:09:21;;;;;;;;;;;;;;;;;;2072940;28;20455;-88
2023/04/07 02:10:23;;;;;;;;;;;;;;;;;;2072552;28;19969;-88
2023/04/07 02:11:24;;;;;;;;;;;;;;;;;;2072027;28;19975;-90
2023/04/07 02:12:28;;;;;;;;;;;;;;;;;;2064143;28;19922;-89
2023/04/07 02:13:29;;;;;;;;;;;;;;;;;;2072014;28;19960;-88
2023/04/07 02:14:30;;;;;;;;;;;;;;;;;;2072438;28;20454;-89
2023/04/07 02:15:31;;;;;;;;;;;;;;;;;;2072371;28;19956;-89
2023/04/07 02:16:31;;;;;;;;;;;;;;;;;;2072340;28;20023;-89
2023/04/07 02:17:33;;;;;;;;;;;;;;;;;;2072211;28;19913;-90
2023/04/07 02:18:34;;;;;;;;;;;;;;;;;;2072187;28;19928;-90
2023/04/07 02:19:37;;;;;;;;;;;;;;;;;;2072257;28;20324;-89
2023/04/07 02:20:37;;;;;;;;;;;;;;;;;;2072242;28;19914;-89
2023/04/07 02:21:38;;;;;;;;;;;;;;;;;;2064190;28;19921;-90
2023/04/07 02:22:39;;;;;;;;;;;;;;;;;;2064245;28;19918;-90
2023/04/07 02:23:39;;;;;;;;;;;;;;;;;;2064312;28;19914;-89
2023/04/07 02:24:41;;;;;;;;;;;;;;;;;;2072061;28;20477;-89
2023/04/07 02:25:41;;;;;;;;;;;;;;;;;;2072499;28;19913;-89
2023/04/07 02:26:41;;;;;;;;;;;;;;;;;;2072095;28;20412;-89
2023/04/07 02:27:42;;;;;;;;;;;;;;;;;;2072285;28;20009;-88
2023/04/07 02:28:42;;;;;;;;;;;;;;;;;;2073110;28;19920;-89
2023/04/07 02:29:42;;;;;;;;;;;;;;;;;;2073043;28;19978;-89
2023/04/07 02:30:42;;;;;;;;;;;;;;;;;;2072258;28;19917;-89
2023/04/07 02:31:43;;;;;;;;;;;;;;;;;;2075473;28;19929;-89
2023/04/07 02:32:43;;;;;;;;;;;;;;;;;;2064560;28;19914;-88
2023/04/07 02:33:43;;;;;;;;;;;;;;;;;;2064091;28;20016;-87
2023/04/07 02:34:45;;;;;;;;;;;;;;;;;;2072779;28;20385;-89
2023/04/07 02:35:45;;;;;;;;;;;;;;;;;;2072110;28;19936;-89
2023/04/07 02:36:45;;;;;;;;;;;;;;;;;;2072143;28;19940;-90
2023/04/07 02:37:46;;;;;;;;;;;;;;;;;;2064326;28;19939;-88
2023/04/07 02:38:46;;;;;;;;;;;;;;;;;;2064010;28;19921;-89
2023/04/07 02:39:46;;;;;;;;;;;;;;;;;;2072836;28;19996;-89
2023/04/07 02:40:46;;;;;;;;;;;;;;;;;;2071972;28;19987;-90
2023/04/07 02:41:47;;;;;;;;;;;;;;;;;;2072249;28;19980;-89
2023/04/07 02:42:47;;;;;;;;;;;;;;;;;;2063916;28;19997;-89
2023/04/07 02:43:47;;;;;;;;;;;;;;;;;;2056011;28;20365;-90
2023/04/07 02:44:47;;;;;;;;;;;;;;;;;;2063898;28;19914;-89
2023/04/07 02:45:48;;;;;;;;;;;;;;;;;;2072230;28;20399;-90
2023/04/07 02:46:48;;;;;;;;;;;;;;;;;;2066535;28;20011;-88
2023/04/07 02:47:48;;;;;;;;;;;;;;;;;;2056221;28;20016;-88
2023/04/07 02:48:49;;;;;;;;;;;;;;;;;;2065565;28;20444;-90
2023/04/07 02:49:49;;;;;;;;;;;;;;;;;;2064284;28;19913;-89
2023/04/07 02:50:50;;;;;;;;;;;;;;;;;;2080163;28;20344;-90
2023/04/07 02:51:50;;;;;;;;;;;;;;;;;;2072281;28;20369;-88
2023/04/07 02:52:50;;;;;;;;;;;;;;;;;;2063998;28;19914;-88
2023/04/07 02:53:51;;;;;;;;;;;;;;;;;;2072510;28;19984;-88
2023/04/07 02:54:51;;;;;;;;;;;;;;;;;;2071930;28;20030;-88
2023/04/07 02:55:51;;;;;;;;;;;;;;;;;;2072137;28;20411;-88
2023/04/07 02:56:52;;;;;;;;;;;;;;;;;;2072029;28;19917;-88
2023/04/07 02:57:52;;;;;;;;;;;;;;;;;;2071994;28;19963;-87
2023/04/07 02:58:52;;;;;;;;;;;;;;;;;;2071920;28;19976;-87
2023/04/07 02:59:54;;;;;;;;;;;;;;;;;;2063828;28;19953;-88
2023/04/07 03:00:55;;;;;;;;;;;;;;;;;;2071953;28;19976;-86
2023/04/07 03:01:55;;;;;;;;;;;;;;;;;;2071957;28;20411;-87
2023/04/07 03:02:55;;;;;;;;;;;;;;;;;;2063914;28;20052;-87
2023/04/07 03:03:55;;;;;;;;;;;;;;;;;;2063778;28;20771;-87
2023/04/07 03:04:56;;;;;;;;;;;;;;;;;;2063760;28;19918;-87
2023/04/07 03:05:56;;;;;;;;;;;;;;;;;;2063649;28;19917;-88
2023/04/07 03:06:56;;;;;;;;;;;;;;;;;;2072073;28;20517;-88
2023/04/07 03:07:57;;;;;;;;;;;;;;;;;;2071822;28;19998;-86
2023/04/07 03:08:57;;;;;;;;;;;;;;;;;;2071783;28;19914;-88
2023/04/07 03:09:57;;;;;;;;;;;;;;;;;;2064095;28;19913;-87
2023/04/07 03:10:57;;;;;;;;;;;;;;;;;;2063726;28;20424;-86
2023/04/07 03:11:58;;;;;;;;;;;;;;;;;;2072535;28;19913;-87
2023/04/07 03:12:58;;;;;;;;;;;;;;;;;;2071797;28;19914;-89
2023/04/07 03:13:58;;;;;;;;;;;;;;;;;;2070544;28;20487;-89
2023/04/07 03:14:59;;;;;;;;;;;;;;;;;;2071960;28;19939;-89
2023/04/07 03:15:59;;;;;;;;;;;;;;;;;;2077221;28;19920;-88
2023/04/07 03:16:59;;;;;;;;;;;;;;;;;;2076811;28;19927;-90
2023/04/07 03:18:00;;;;;;;;;;;;;;;;;;2071756;28;20064;-88
2023/04/07 03:19:00;;;;;;;;;;;;;;;;;;2072700;28;20431;-87
2023/04/07 03:20:01;;;;;;;;;;;;;;;;;;2071676;28;20012;-87
2023/04/07 03:21:01;;;;;;;;;;;;;;;;;;2071838;28;19924;-87
2023/04/07 03:22:02;;;;;;;;;;;;;;;;;;2071787;28;19933;-89
2023/04/07 03:23:02;;;;;;;;;;;;;;;;;;2071804;28;20358;-89
2023/04/07 03:24:03;;;;;;;;;;;;;;;;;;2073552;28;20016;-88
2023/04/07 03:25:03;;;;;;;;;;;;;;;;;;2075605;28;19973;-88
2023/04/07 03:26:04;;;;;;;;;;;;;;;;;;2071663;28;19928;-88
2023/04/07 03:27:04;;;;;;;;;;;;;;;;;;2071913;28;20005;-91
2023/04/07 03:28:04;;;;;;;;;;;;;;;;;;2063727;28;19945;-89
2023/04/07 03:29:05;;;;;;;;;;;;;;;;;;2071765;28;20395;-88
2023/04/07 03:30:05;;;;;;;;;;;;;;;;;;2071773;28;19925;-89
2023/04/07 03:31:06;;;;;;;;;;;;;;;;;;2071794;28;19917;-88
2023/04/07 03:32:06;;;;;;;;;;;;;;;;;;2063749;28;20012;-89
2023/04/07 03:33:06;;;;;;;;;;;;;;;;;;2063719;28;19918;-88
2023/04/07 03:34:07;;;;;;;;;;;;;;;;;;2063399;28;19921;-89
2023/04/07 03:35:07;;;;;;;;;;;;;;;;;;2063818;28;19980;-88
2023/04/07 03:36:08;;;;;;;;;;;;;;;;;;2071778;28;20036;-88
2023/04/07 03:37:08;;;;;;;;;;;;;;;;;;2071855;28;19913;-90
2023/04/07 03:38:09;;;;;;;;;;;;;;;;;;2072390;28;20448;-88
2023/04/07 03:39:12;;;;;;;;;;;;;;;;;;1784045;28;10253491;-88
2023/04/07 03:40:13;;;;;;;;;;;;;;;;;;2072715;28;20381;-90
2023/04/07 03:41:14;;;;;;;;;;;;;;;;;;2072614;28;19917;-88
2023/04/07 03:42:14;;;;;;;;;;;;;;;;;;2072884;28;19920;-88
2023/04/07 03:43:15;;;;;;;;;;;;;;;;;;2071984;28;20141;-89
2023/04/07 03:44:15;;;;;;;;;;;;;;;;;;2071944;28;19914;-89
2023/04/07 03:45:16;;;;;;;;;;;;;;;;;;2071744;28;19914;-89
2023/04/07 03:46:18;;;;;;;;;;;;;;;;;;2063819;28;19924;-90
2023/04/07 03:47:18;;;;;;;;;;;;;;;;;;2064014;28;20008;-90
2023/04/07 03:48:19;;;;;;;;;;;;;;;;;;2071961;28;19926;-89
2023/04/07 03:49:19;;;;;;;;;;;;;;;;;;2063521;28;19918;-90
2023/04/07 03:50:20;;;;;;;;;;;;;;;;;;2063915;28;19914;-89
2023/04/07 03:51:20;;;;;;;;;;;;;;;;;;2071671;28;20431;-89
2023/04/07 03:52:21;;;;;;;;;;;;;;;;;;2072135;28;19991;-90
2023/04/07 03:53:21;;;;;;;;;;;;;;;;;;2071920;28;19967;-90
2023/04/07 03:54:22;;;;;;;;;;;;;;;;;;2072275;28;20006;-89
2023/04/07 03:55:22;;;;;;;;;;;;;;;;;;2078502;28;19920;-90
2023/04/07 03:56:23;;;;;;;;;;;;;;;;;;2083081;28;19906;-89
2023/04/07 03:57:23;;;;;;;;;;;;;;;;;;2083142;28;19953;-88
2023/04/07 03:58:24;;;;;;;;;;;;;;;;;;2077913;28;19926;-88
2023/04/07 03:59:24;;;;;;;;;;;;;;;;;;2074685;28;20624;-88
2023/04/07 04:00:25;;;;;;;;;;;;;;;;;;2073669;28;19994;-88
2023/04/07 04:01:26;;;;;;;;;;;;;;;;;;2072057;28;19917;-88
2023/04/07 04:02:26;;;;;;;;;;;;;;;;;;2071728;28;20382;-89
2023/04/07 04:03:26;;;;;;;;;;;;;;;;;;2071936;28;19917;-89
2023/04/07 04:04:26;;;;;;;;;;;;;;;;;;1713940;28;10158803;-88
2023/04/07 04:05:27;;;;;;;;;;;;;;;;;;2071769;28;20556;-90
2023/04/07 04:06:27;;;;;;;;;;;;;;;;;;2079933;28;20463;-91
2023/04/07 04:07:27;;;;;;;;;;;;;;;;;;2063873;28;20597;-87
2023/04/07 04:08:28;;;;;;;;;;;;;;;;;;2063311;28;19972;-86
2023/04/07 04:09:28;;;;;;;;;;;;;;;;;;2063455;28;20580;-88
2023/04/07 04:10:28;;;;;;;;;;;;;;;;;;2063294;28;20068;-88
2023/04/07 04:11:30;;;;;;;;;;;;;;;;;;2071159;28;20008;-88
2023/04/07 04:12:30;;;;;;;;;;;;;;;;;;2071548;28;19924;-88
2023/04/07 04:13:31;;;;;;;;;;;;;;;;;;2072319;28;19913;-91
2023/04/07 04:14:31;;;;;;;;;;;;;;;;;;2072392;28;20505;-89
2023/04/07 04:15:31;;;;;;;;;;;;;;;;;;2076474;28;20040;-88
2023/04/07 04:16:42;;;;;;;;;;;;;;;;;;2078838;28;19914;-88
2023/04/07 04:17:42;;;;;;;;;;;;;;;;;;2082555;28;20088;-88
2023/04/07 04:18:42;;;;;;;;;;;;;;;;;;2077983;28;19921;-90
2023/04/07 04:19:42;;;;;;;;;;;;;;;;;;2074739;28;20013;-90
2023/04/07 04:20:43;;;;;;;;;;;;;;;;;;2073653;28;19975;-88
2023/04/07 04:21:43;;;;;;;;;;;;;;;;;;2072945;28;20028;-92
2023/04/07 04:22:43;;;;;;;;;;;;;;;;;;1708635;28;10325324;-90
2023/04/07 04:23:44;;;;;;;;;;;;;;;;;;2064161;28;20446;-89
2023/04/07 04:24:44;;;;;;;;;;;;;;;;;;2071515;28;19918;-90
2023/04/07 04:25:46;;;;;;;;;;;;;;;;;;2071052;28;20145;-90
2023/04/07 04:26:46;;;;;;;;;;;;;;;;;;2063241;28;20409;-91
2023/04/07 04:27:47;;;;;;;;;;;;;;;;;;2063648;28;19924;-90
2023/04/07 04:28:47;;;;;;;;;;;;;;;;;;2079477;28;19920;-90
2023/04/07 04:29:47;;;;;;;;;;;;;;;;;;2071709;28;19932;-89
2023/04/07 04:30:48;;;;;;;;;;;;;;;;;;2063568;28;19949;-89
2023/04/07 04:31:48;;;;;;;;;;;;;;;;;;2071485;28;19988;-89
2023/04/07 04:32:49;;;;;;;;;;;;;;;;;;2071449;28;19914;-88
2023/04/07 04:33:49;;;;;;;;;;;;;;;;;;2071703;28;20373;-91
2023/04/07 04:34:49;;;;;;;;;;;;;;;;;;2071490;28;19925;-89
2023/04/07 04:35:50;;;;;;;;;;;;;;;;;;2071446;28;19914;-89
2023/04/07 04:36:50;;;;;;;;;;;;;;;;;;2063473;28;19949;-91
2023/04/07 04:37:51;;;;;;;;;;;;;;;;;;2063107;28;19929;-90
2023/04/07 04:38:51;;;;;;;;;;;;;;;;;;2071664;28;19913;-89
2023/04/07 04:39:51;;;;;;;;;;;;;;;;;;2071364;28;19913;-89
2023/04/07 04:40:51;;;;;;;;;;;;;;;;;;2072284;28;19919;-88
2023/04/07 04:41:52;;;;;;;;;;;;;;;;;;2072120;28;20531;-89
2023/04/07 04:42:52;;;;;;;;;;;;;;;;;;2072095;28;19913;-89
2023/04/07 04:43:52;;;;;;;;;;;;;;;;;;2071375;28;19913;-89
2023/04/07 04:44:52;;;;;;;;;;;;;;;;;;2063170;28;19914;-89
2023/04/07 04:45:55;;;;;;;;;;;;;;;;;;2063086;28;20377;-89
2023/04/07 04:46:55;;;;;;;;;;;;;;;;;;2063134;28;19914;-89
2023/04/07 04:47:55;;;;;;;;;;;;;;;;;;2063217;28;19979;-89
2023/04/07 04:48:56;;;;;;;;;;;;;;;;;;2071825;28;20392;-88
2023/04/07 04:49:57;;;;;;;;;;;;;;;;;;2067724;28;20385;-88
2023/04/07 04:50:57;;;;;;;;;;;;;;;;;;2069817;28;19981;-90
2023/04/07 04:51:57;;;;;;;;;;;;;;;;;;2076737;28;19937;-88
2023/04/07 04:52:57;;;;;;;;;;;;;;;;;;2071424;28;20357;-90
2023/04/07 04:53:59;;;;;;;;;;;;;;;;;;2063416;28;19953;-89
2023/04/07 04:54:59;;;;;;;;;;;;;;;;;;2063724;28;19914;-89
2023/04/07 04:55:59;;;;;;;;;;;;;;;;;;2071949;28;19920;-88
2023/04/07 04:57:00;;;;;;;;;;;;;;;;;;2061956;28;19921;-89
2023/04/07 04:58:01;;;;;;;;;;;;;;;;;;2071966;28;20012;-89
2023/04/07 04:59:02;;;;;;;;;;;;;;;;;;2071989;28;19944;-88
2023/04/07 05:00:03;;;;;;;;;;;;;;;;;;2070953;28;19929;-89
2023/04/07 05:01:03;;;;;;;;;;;;;;;;;;2071819;28;20368;-89
2023/04/07 05:02:03;;;;;;;;;;;;;;;;;;2071361;28;19917;-89
2023/04/07 05:03:04;;;;;;;;;;;;;;;;;;2071004;28;20058;-89
2023/04/07 05:04:04;;;;;;;;;;;;;;;;;;2055508;28;19953;-88
2023/04/07 05:05:05;;;;;;;;;;;;;;;;;;2055131;28;20019;-88
2023/04/07 05:06:05;;;;;;;;;;;;;;;;;;2063147;28;20005;-89
2023/04/07 05:07:05;;;;;;;;;;;;;;;;;;2071737;28;19917;-90
2023/04/07 05:08:07;;;;;;;;;;;;;;;;;;2071188;28;20320;-89
2023/04/07 05:09:07;;;;;;;;;;;;;;;;;;2072768;28;19922;-90
2023/04/07 05:10:08;;;;;;;;;;;;;;;;;;2075913;28;19938;-89
2023/04/07 05:11:08;;;;;;;;;;;;;;;;;;2075263;28;20003;-90
2023/04/07 05:12:09;;;;;;;;;;;;;;;;;;2063297;28;19940;-90
2023/04/07 05:13:09;;;;;;;;;;;;;;;;;;2071189;28;19914;-88
2023/04/07 05:14:10;;;;;;;;;;;;;;;;;;2071256;28;19932;-88
2023/04/07 05:15:11;;;;;;;;;;;;;;;;;;2071211;28;19920;-89
2023/04/07 05:16:11;;;;;;;;;;;;;;;;;;2071071;28;19953;-89
2023/04/07 05:17:11;;;;;;;;;;;;;;;;;;2071048;28;19996;-89
2023/04/07 05:18:12;;;;;;;;;;;;;;;;;;2070935;28;19917;-88
2023/04/07 05:19:12;;;;;;;;;;;;;;;;;;2062818;28;19937;-90
2023/04/07 05:20:12;;;;;;;;;;;;;;;;;;2063347;28;20304;-89
2023/04/07 05:21:13;;;;;;;;;;;;;;;;;;2070933;28;19925;-90
2023/04/07 05:22:13;;;;;;;;;;;;;;;;;;2071090;28;20004;-89
2023/04/07 05:23:13;;;;;;;;;;;;;;;;;;2070732;28;19936;-89
2023/04/07 05:24:13;;;;;;;;;;;;;;;;;;2072193;28;19914;-89
2023/04/07 05:25:14;;;;;;;;;;;;;;;;;;2071716;28;19914;-90
2023/04/07 05:26:14;;;;;;;;;;;;;;;;;;2071561;28;19997;-90
2023/04/07 05:27:14;;;;;;;;;;;;;;;;;;2071195;28;19980;-90
2023/04/07 05:28:15;;;;;;;;;;;;;;;;;;2067680;28;20327;-88
2023/04/07 05:29:15;;;;;;;;;;;;;;;;;;2071050;28;19933;-90
2023/04/07 05:30:16;;;;;;;;;;;;;;;;;;2066045;28;19982;-90
2023/04/07 05:31:16;;;;;;;;;;;;;;;;;;2071065;28;20403;-89
2023/04/07 05:32:17;;;;;;;;;;;;;;;;;;2079208;28;19924;-90
2023/04/07 05:33:18;;;;;;;;;;;;;;;;;;2071732;28;19914;-89
2023/04/07 05:34:18;;;;;;;;;;;;;;;;;;2071564;28;19921;-89
2023/04/07 05:35:19;;;;;;;;;;;;;;;;;;2070474;28;19917;-88
2023/04/07 05:36:19;;;;;;;;;;;;;;;;;;2070812;28;20202;-88
2023/04/07 05:37:20;;;;;;;;;;;;;;;;;;2070235;28;19914;-90
2023/04/07 05:38:20;;;;;;;;;;;;;;;;;;2070481;28;19921;-89
2023/04/07 05:39:20;;;;;;;;;;;;;;;;;;2070577;28;19917;-89
2023/04/07 05:40:22;;;;;;;;;;;;;;;;;;2072264;28;19913;-89
2023/04/07 05:41:22;;;;;;;;;;;;;;;;;;2070291;28;19913;-87
2023/04/07 05:42:22;;;;;;;;;;;;;;;;;;2071555;28;20004;-89
2023/04/07 05:43:22;;;;;;;;;;;;;;;;;;2072059;28;19913;-88
2023/04/07 05:44:23;;;;;;;;;;;;;;;;;;2062609;28;20004;-88
2023/04/07 05:45:23;;;;;;;;;;;;;;;;;;2062597;28;19924;-89
2023/04/07 05:46:23;;;;;;;;;;;;;;;;;;2070604;28;19951;-88
2023/04/07 05:47:24;;;;;;;;;;;;;;;;;;2078738;28;19913;-89
2023/04/07 05:48:24;;;;;;;;;;;;;;;;;;2075398;28;19967;-89
2023/04/07 05:49:25;;;;;;;;;;;;;;;;;;2068184;28;19936;-88
2023/04/07 05:50:25;;;;;;;;;;;;;;;;;;2063388;28;19918;-89
2023/04/07 05:51:26;;;;;;;;;;;;;;;;;;2062658;28;19960;-89
2023/04/07 05:52:26;;;;;;;;;;;;;;;;;;2062324;28;19998;-89
2023/04/07 05:53:26;;;;;;;;;;;;;;;;;;2062785;28;19925;-87
2023/04/07 05:54:27;;;;;;;;;;;;;;;;;;2062436;28;19914;-87
2023/04/07 05:55:27;;;;;;;;;;;;;;;;;;2062464;28;19967;-87
2023/04/07 05:56:27;;;;;;;;;;;;;;;;;;2070476;28;20290;-88
2023/04/07 05:57:28;;;;;;;;;;;;;;;;;;2062324;28;19914;-87
2023/04/07 05:58:28;;;;;;;;;;;;;;;;;;2060281;28;20031;-87
2023/04/07 05:59:28;;;;;;;;;;;;;;;;;;2059672;28;20038;-87
2023/04/07 06:00:31;;;;;;;;;;;;;;;;;;2057895;28;19913;-86
2023/04/07 06:01:31;;;;;;;;;;;;;;;;;;2066612;28;19923;-88
2023/04/07 06:02:31;;;;;;;;;;;;;;;;;;2069029;28;20416;-88
2023/04/07 06:03:31;;;;;;;;;;;;;;;;;;2072479;28;19929;-88
2023/04/07 06:04:34;;;;;;;;;;;;;;;;;;2070159;28;20118;-87
2023/04/07 06:05:42;;;;;;;;;;;;;;;;;;2070799;28;19923;-88
2023/04/07 06:06:45;;;;;;;;;;;;;;;;;;2073586;28;20013;-87
2023/04/07 06:07:45;;;;;;;;;;;;;;;;;;2058889;28;20394;-88
2023/04/07 06:08:59;;;;;;;;;;;;;;;;;;2065972;28;19914;-88
2023/04/07 06:10:11;;;;;;;;;;;;;;;;;;2073295;28;20370;-87
2023/04/07 06:11:11;;;;;;;;;;;;;;;;;;2050264;28;19922;-88
2023/04/07 06:12:12;;;;;;;;;;;;;;;;;;2056680;28;20381;-89
2023/04/07 06:13:15;;;;;;;;;;;;;;;;;;2058031;28;20437;-90
2023/04/07 06:14:33;;;;;;;;;;;;;;;;;;2066671;28;19921;-90
2023/04/07 06:15:33;;;;;;;;;;;;;;;;;;2067421;28;20009;-90
2023/04/07 06:16:39;;;;;;;;;;;;;;;;;;2063580;28;19914;-89
2023/04/07 06:17:44;;;;;;;;;;;;;;;;;;2065430;28;19914;-89
2023/04/07 06:18:44;;;;;;;;;;;;;;;;;;2063437;28;19913;-89
2023/04/07 06:19:56;;;;;;;;;;;;;;;;;;2060140;28;20324;-89
2023/04/07 06:21:05;;;;;;;;;;;;;;;;;;2068533;28;19925;-90
2023/04/07 06:22:05;;;;;;;;;;;;;;;;;;2066361;28;20012;-90
2023/04/07 06:23:17;;;;;;;;;;;;;;;;;;2062063;28;19968;-89
2023/04/07 06:24:26;;;;;;;;;;;;;;;;;;2065305;28;19925;-89
2023/04/07 06:25:26;;;;;;;;;;;;;;;;;;2062877;28;20137;-89
2023/04/07 06:26:27;;;;;;;;;;;;;;;;;;2062645;28;19980;-89
2023/04/07 06:27:27;;;;;;;;;;;;;;;;;;2062181;28;19930;-89
2023/04/07 06:28:27;;;;;;;;;;;;;;;;;;2062694;28;19952;-89
2023/04/07 06:29:28;;;;;;;;;;;;;;;;;;2062588;28;19920;-88
2023/04/07 06:30:28;;;;;;;;;;;;;;;;;;2062608;28;19914;-89
2023/04/07 06:31:29;;;;;;;;;;;;;;;;;;2071496;28;19925;-89
2023/04/07 06:32:29;;;;;;;;;;;;;;;;;;2071575;28;20372;-89
2023/04/07 06:33:29;;;;;;;;;;;;;;;;;;2071522;28;19920;-88
2023/04/07 06:34:30;;;;;;;;;;;;;;;;;;2071424;28;19920;-88
2023/04/07 06:35:30;;;;;;;;;;;;;;;;;;2071316;28;19966;-87
2023/04/07 06:36:32;;;;;;;;;;;;;;;;;;2062388;28;19914;-88
2023/04/07 06:37:32;;;;;;;;;;;;;;;;;;2065966;28;20565;-89
2023/04/07 06:38:33;;;;;;;;;;;;;;;;;;2081508;28;19941;-88
2023/04/07 06:39:33;;;;;;;;;;;;;;;;;;2070405;28;19926;-88
2023/04/07 06:40:33;;;;;;;;;;;;;;;;;;2066023;28;19922;-88
2023/04/07 06:41:34;;;;;;;;;;;;;;;;;;2063903;28;19953;-88
2023/04/07 06:42:34;;;;;;;;;;;;;;;;;;2064348;28;19914;-88
2023/04/07 06:43:34;;;;;;;;;;;;;;;;;;2063336;28;19920;-90
2023/04/07 06:44:34;;;;;;;;;;;;;;;;;;2062508;28;19965;-87
2023/04/07 06:45:35;;;;;;;;;;;;;;;;;;1701824;28;10286328;-87
2023/04/07 06:46:35;;;;;;;;;;;;;;;;;;2054408;28;19922;-90
2023/04/07 06:47:37;;;;;;;;;;;;;;;;;;2064064;28;20261;-91
2023/04/07 06:48:37;;;;;;;;;;;;;;;;;;1715454;28;10248010;-88
2023/04/07 06:49:37;;;;;;;;;;;;;;;;;;2062464;28;19968;-89
2023/04/07 06:50:37;;;;;;;;;;;;;;;;;;2055063;28;19921;-88
2023/04/07 06:51:38;;;;;;;;;;;;;;;;;;2063791;28;20020;-90
2023/04/07 06:52:38;;;;;;;;;;;;;;;;;;2062164;28;19922;-90
2023/04/07 06:53:40;;;;;;;;;;;;;;;;;;2050040;28;19914;-89
2023/04/07 06:54:40;;;;;;;;;;;;;;;;;;2050262;28;20429;-90
2023/04/07 06:55:41;;;;;;;;;;;;;;;;;;2059152;28;19930;-87
2023/04/07 06:56:41;;;;;;;;;;;;;;;;;;2069053;28;19993;-90
2023/04/07 06:57:42;;;;;;;;;;;;;;;;;;2058539;28;19914;-90